createdAt,value
2022-08-17T00:02:25.253Z,98520.03
2022-08-17T00:04:55.062Z,98520.63
2022-08-17T00:07:22.596Z,98514.78
2022-08-17T00:09:49.780Z,98515.19
2022-08-17T00:12:51.236Z,98513.69
2022-08-17T00:15:05.049Z,98514.09
2022-08-17T00:17:32.469Z,98518.47
2022-08-17T00:20:02.315Z,98508.63
2022-08-17T00:22:35.328Z,98513.31
2022-08-17T00:25:05.342Z,98510.75
2022-08-17T00:27:33.638Z,98509.38
2022-08-17T00:30:00.778Z,98514.59
2022-08-17T00:33:22.799Z,98511.34
2022-08-17T00:35:17.549Z,98511.09
2022-08-17T00:37:44.983Z,98512.69
2022-08-17T00:40:13.269Z,98511.78
2022-08-17T00:42:40.614Z,98518.62
2022-08-17T00:45:09.272Z,98510.66
2022-08-17T00:47:36.463Z,98515.31
2022-08-17T00:50:04.900Z,98519.59
2022-08-17T00:52:36.197Z,98514.16
2022-08-17T00:55:03.957Z,98512.31
2022-08-17T00:57:32.162Z,98514.16
2022-08-17T01:00:03.239Z,98519.59
2022-08-17T01:02:40.445Z,98520.34
2022-08-17T01:05:10.840Z,98517.56
2022-08-17T01:07:38.152Z,98516.47
2022-08-17T01:10:06.188Z,98523.50
2022-08-17T01:12:34.493Z,98526.69
2022-08-17T01:15:01.650Z,98528.97
2022-08-17T01:17:29.038Z,98524.13
2022-08-17T01:19:56.668Z,98529.22
2022-08-17T01:22:24.510Z,98530.44
2022-08-17T01:25:02.584Z,98534.03
2022-08-17T01:27:30.075Z,98528.56
2022-08-17T01:29:58.992Z,98534.22
2022-08-17T01:32:26.634Z,98529.13
2022-08-17T01:34:54.139Z,98534.59
2022-08-17T01:37:21.695Z,98540.16
2022-08-17T01:39:50.551Z,98532.66
2022-08-17T01:42:31.032Z,98537.50
2022-08-17T01:44:59.034Z,98534.09
2022-08-17T01:47:26.451Z,98534.81
2022-08-17T01:49:56.977Z,98545.03
2022-08-17T01:52:24.135Z,98529.47
2022-08-17T01:54:51.639Z,98542.28
2022-08-17T01:57:18.784Z,98540.13
2022-08-17T01:59:45.970Z,98538.59
2022-08-17T02:02:13.409Z,98531.66
2022-08-17T02:04:58.620Z,98535.69
2022-08-17T02:07:26.162Z,98534.81
2022-08-17T02:09:54.323Z,98533.34
2022-08-17T02:12:39.265Z,98528.00
2022-08-17T02:15:12.374Z,98530.81
2022-08-17T02:17:40.843Z,98523.41
2022-08-17T02:20:09.209Z,98525.94
2022-08-17T02:22:36.523Z,98517.91
2022-08-17T02:25:04.626Z,98520.25
2022-08-17T02:27:32.777Z,98523.03
2022-08-17T02:29:59.915Z,98518.28
2022-08-17T02:32:28.644Z,98523.66
2022-08-17T02:34:56.864Z,98521.72
2022-08-17T02:37:24.566Z,98522.19
2022-08-17T02:39:52.152Z,98529.00
2022-08-17T02:42:19.370Z,98525.94
2022-08-17T02:44:46.742Z,98522.06
2022-08-17T02:47:14.191Z,98526.09
2022-08-17T02:49:46.255Z,98526.44
2022-08-17T02:52:43.003Z,98523.53
2022-08-17T02:55:30.900Z,98523.66
2022-08-17T02:57:58.516Z,98517.06
2022-08-17T03:00:28.833Z,98517.06
2022-08-17T03:02:56.698Z,98519.66
2022-08-17T03:05:24.897Z,98527.66
2022-08-17T03:07:52.195Z,98521.22
2022-08-17T03:10:19.614Z,98530.44
2022-08-17T03:12:47.307Z,98540.84
2022-08-17T03:15:15.482Z,98533.84
2022-08-17T03:17:42.749Z,98529.09
2022-08-17T03:20:10.531Z,98535.31
2022-08-17T03:22:38.628Z,98534.56
2022-08-17T03:25:10.647Z,98535.34
2022-08-17T03:27:41.964Z,98534.47
2022-08-17T03:30:10.668Z,98531.09
2022-08-17T03:32:39.149Z,98535.97
2022-08-17T03:35:06.514Z,98542.25
2022-08-17T03:37:33.664Z,98537.78
2022-08-17T03:40:01.315Z,98529.41
2022-08-17T03:42:32.293Z,98538.88
2022-08-17T03:45:00.755Z,98535.47
2022-08-17T03:47:46.706Z,98540.41
2022-08-17T03:50:33.240Z,98541.56
2022-08-17T03:53:19.525Z,98540.22
2022-08-17T03:56:05.388Z,98544.47
2022-08-17T03:58:32.566Z,98548.38
2022-08-17T04:01:00.016Z,98547.03
2022-08-17T04:03:27.479Z,98550.81
2022-08-17T04:05:54.628Z,98546.22
2022-08-17T04:08:21.801Z,98547.75
2022-08-17T04:10:49.247Z,98556.94
2022-08-17T04:13:16.406Z,98556.41
2022-08-17T04:15:52.523Z,98561.75
2022-08-17T04:18:19.985Z,98561.22
2022-08-17T04:20:47.156Z,98562.22
2022-08-17T04:23:15.812Z,98566.41
2022-08-17T04:25:45.045Z,98561.47
2022-08-17T04:28:16.133Z,98568.78
2022-08-17T04:30:45.248Z,98559.75
2022-08-17T04:33:14.154Z,98568.87
2022-08-17T04:35:42.493Z,98568.87
2022-08-17T04:38:12.100Z,98566.66
2022-08-17T04:40:57.996Z,98569.72
2022-08-17T04:43:26.471Z,98575.59
2022-08-17T04:45:56.544Z,98572.88
2022-08-17T04:48:35.448Z,98566.19
2022-08-17T04:51:09.913Z,98562.47
2022-08-17T04:53:38.172Z,98571.88
2022-08-17T04:56:05.729Z,98574.56
2022-08-17T04:58:32.969Z,98571.97
2022-08-17T05:01:00.275Z,98577.59
2022-08-17T05:03:27.829Z,98580.28
2022-08-17T05:05:54.989Z,98585.81
2022-08-17T05:08:22.162Z,98582.34
2022-08-17T05:10:50.129Z,98588.16
2022-08-17T05:13:18.944Z,98584.94
2022-08-17T05:15:47.764Z,98589.53
2022-08-17T05:18:16.064Z,98588.00
2022-08-17T05:20:43.358Z,98595.38
2022-08-17T05:23:12.528Z,98594.00
2022-08-17T05:25:40.821Z,98594.88
2022-08-17T05:28:08.507Z,98592.28
2022-08-17T05:30:37.161Z,98606.63
2022-08-17T05:33:06.104Z,98601.59
2022-08-17T05:35:34.102Z,98596.19
2022-08-17T05:38:01.715Z,98607.44
2022-08-17T05:40:32.877Z,98603.16
2022-08-17T05:43:04.714Z,98609.47
2022-08-17T05:45:55.115Z,98609.84
2022-08-17T05:48:19.606Z,98600.25
2022-08-17T05:50:46.979Z,98610.31
2022-08-17T05:53:26.469Z,98607.97
2022-08-17T05:56:01.050Z,98607.88
2022-08-17T05:58:31.388Z,98608.44
2022-08-17T06:00:58.808Z,98599.44
2022-08-17T06:03:26.237Z,98610.06
2022-08-17T06:06:08.391Z,98604.88
2022-08-17T06:08:45.384Z,98606.59
2022-08-17T06:11:37.400Z,98611.28
2022-08-17T06:14:07.979Z,98602.94
2022-08-17T06:16:36.795Z,98606.78
2022-08-17T06:19:11.970Z,98604.03
2022-08-17T06:21:41.333Z,98613.66
2022-08-17T06:24:16.358Z,98606.34
2022-08-17T06:26:45.466Z,98613.78
2022-08-17T06:29:18.554Z,98610.97
2022-08-17T06:31:46.464Z,98616.50
2022-08-17T06:34:13.619Z,98613.56
2022-08-17T06:36:59.900Z,98609.81
2022-08-17T06:39:27.479Z,98620.78
2022-08-17T06:42:00.820Z,98619.22
2022-08-17T06:44:43.479Z,98620.56
2022-08-17T06:47:28.401Z,98627.19
2022-08-17T06:50:05.685Z,98627.41
2022-08-17T06:52:45.556Z,98631.63
2022-08-17T06:55:19.046Z,98635.44
2022-08-17T06:57:47.993Z,98633.62
2022-08-17T07:00:18.703Z,98628.47
2022-08-17T07:02:55.350Z,98630.78
2022-08-17T07:05:25.210Z,98634.22
2022-08-17T07:08:03.700Z,98635.25
2022-08-17T07:10:32.531Z,98631.47
2022-08-17T07:13:12.058Z,98631.00
2022-08-17T07:15:42.371Z,98630.50
2022-08-17T07:18:09.540Z,98629.34
2022-08-17T07:20:37.522Z,98634.31
2022-08-17T07:23:17.410Z,98635.84
2022-08-17T07:25:44.569Z,98629.91
2022-08-17T07:28:13.004Z,98634.22
2022-08-17T07:30:46.865Z,98628.53
2022-08-17T07:33:17.863Z,98636.13
2022-08-17T07:35:45.175Z,98630.69
2022-08-17T07:38:25.415Z,98629.06
2022-08-17T07:41:03.231Z,98634.16
2022-08-17T07:43:39.467Z,98636.22
2022-08-17T07:46:34.654Z,98640.97
2022-08-17T07:49:07.497Z,98639.31
2022-08-17T07:51:44.156Z,98632.34
2022-08-17T07:54:24.355Z,98635.03
2022-08-17T07:56:52.965Z,98640.75
2022-08-17T07:59:23.919Z,98636.69
2022-08-17T08:01:57.439Z,98640.62
2022-08-17T08:07:16.885Z,98641.22
2022-08-17T08:09:45.281Z,98641.97
2022-08-17T08:12:21.796Z,98643.16
2022-08-17T08:14:57.771Z,98639.19
2022-08-17T08:17:26.751Z,98638.69
2022-08-17T08:19:54.168Z,98636.13
2022-08-17T08:22:22.595Z,98637.47
2022-08-17T08:24:53.136Z,98632.94
2022-08-17T08:27:25.361Z,98635.66
2022-08-17T08:29:55.319Z,98637.13
2022-08-17T08:32:42.862Z,98636.19
2022-08-17T08:35:13.277Z,98637.22
2022-08-17T08:37:50.983Z,98628.41
2022-08-17T08:40:23.921Z,98639.63
2022-08-17T08:43:00.364Z,98641.63
2022-08-17T08:45:38.191Z,98636.56
2022-08-17T08:48:53.141Z,98638.59
2022-08-17T08:51:28.481Z,98625.59
2022-08-17T08:53:58.903Z,98631.78
2022-08-17T08:57:05.004Z,98634.06
2022-08-17T08:59:57.718Z,98630.09
2022-08-17T09:02:34.957Z,98632.78
2022-08-17T09:05:21.206Z,98634.81
2022-08-17T09:07:48.274Z,98634.38
2022-08-17T09:10:15.605Z,98630.00
2022-08-17T09:12:42.763Z,98630.25
2022-08-17T09:15:13.008Z,98637.56
2022-08-17T09:17:47.395Z,98624.91
2022-08-17T09:20:48.078Z,98635.09
2022-08-17T09:23:37.739Z,98642.34
2022-08-17T09:26:18.023Z,98638.22
2022-08-17T09:28:47.017Z,98651.78
2022-08-17T09:31:19.410Z,98636.78
2022-08-17T09:33:48.301Z,98638.00
2022-08-17T09:36:21.325Z,98636.47
2022-08-17T09:39:08.166Z,98638.47
2022-08-17T09:41:38.663Z,98634.63
2022-08-17T09:44:35.617Z,98639.84
2022-08-17T09:47:08.111Z,98633.72
2022-08-17T09:49:42.507Z,98634.00
2022-08-17T09:52:11.479Z,98630.84
2022-08-17T09:54:42.430Z,98629.37
2022-08-17T09:57:31.723Z,98624.50
2022-08-17T10:00:17.943Z,98630.56
2022-08-17T10:02:53.592Z,98633.66
2022-08-17T10:05:27.411Z,98630.91
2022-08-17T10:07:57.825Z,98639.06
2022-08-17T10:10:25.582Z,98633.00
2022-08-17T10:13:05.451Z,98630.25
2022-08-17T10:15:52.559Z,98630.09
2022-08-17T10:18:24.486Z,98631.28
2022-08-17T10:21:25.292Z,98629.66
2022-08-17T10:24:22.538Z,98623.03
2022-08-17T10:26:56.792Z,98631.25
2022-08-17T10:29:28.848Z,98622.41
2022-08-17T10:32:04.633Z,98621.91
2022-08-17T10:34:38.651Z,98606.69
2022-08-17T10:37:26.266Z,98616.91
2022-08-17T10:39:57.389Z,98617.91
2022-08-17T10:42:30.834Z,98615.16
2022-08-17T10:45:05.806Z,98616.41
2022-08-17T10:47:55.349Z,98613.34
2022-08-17T10:50:44.349Z,98623.66
2022-08-17T10:53:27.136Z,98625.00
2022-08-17T10:56:14.256Z,98619.88
2022-08-17T10:58:55.874Z,98604.97
2022-08-17T11:01:22.986Z,98608.00
2022-08-17T11:03:53.425Z,98605.66
2022-08-17T11:06:21.502Z,98620.03
2022-08-17T11:08:51.374Z,98600.09
2022-08-17T11:11:37.559Z,98590.31
2022-08-17T11:14:21.381Z,98600.06
2022-08-17T11:17:07.581Z,98612.06
2022-08-17T11:19:43.989Z,98610.62
2022-08-17T11:22:23.559Z,98613.22
2022-08-17T11:24:51.412Z,98598.53
2022-08-17T11:27:26.687Z,98601.16
2022-08-17T11:30:02.540Z,98596.31
2022-08-17T11:32:31.357Z,98594.62
2022-08-17T11:35:11.999Z,98591.44
2022-08-17T11:37:59.610Z,98585.97
2022-08-17T11:40:28.304Z,98589.84
2022-08-17T11:43:00.182Z,98586.75
2022-08-17T11:45:33.776Z,98591.13
2022-08-17T11:48:28.180Z,98591.66
2022-08-17T11:51:17.375Z,98587.50
2022-08-17T11:53:45.839Z,98579.28
2022-08-17T11:56:31.789Z,98578.19
2022-08-17T11:59:00.712Z,98577.91
2022-08-17T12:01:28.953Z,98566.03
2022-08-17T12:04:16.280Z,98572.31
2022-08-17T12:06:50.685Z,98569.22
2022-08-17T12:09:19.224Z,98567.03
2022-08-17T12:12:12.081Z,98562.63
2022-08-17T12:15:08.911Z,98555.56
2022-08-17T12:17:41.184Z,98561.06
2022-08-17T12:20:12.799Z,98548.28
2022-08-17T12:23:01.146Z,98552.50
2022-08-17T12:25:40.758Z,98559.03
2022-08-17T12:28:26.565Z,98551.88
2022-08-17T12:30:54.244Z,98547.66
2022-08-17T12:33:25.539Z,98542.16
2022-08-17T12:36:03.386Z,98549.78
2022-08-17T12:38:34.402Z,98551.50
2022-08-17T12:41:22.532Z,98544.87
2022-08-17T12:43:56.363Z,98541.81
2022-08-17T12:46:23.789Z,98548.16
2022-08-17T12:48:58.925Z,98555.41
2022-08-17T12:51:29.140Z,98549.38
2022-08-17T12:53:56.479Z,98540.16
2022-08-17T12:56:23.611Z,98543.28
2022-08-17T12:58:54.075Z,98548.91
2022-08-17T13:01:21.256Z,98548.75
2022-08-17T13:03:49.483Z,98550.75
2022-08-17T13:06:28.682Z,98545.87
2022-08-17T13:08:55.855Z,98544.94
2022-08-17T13:11:24.807Z,98539.81
2022-08-17T13:13:54.443Z,98536.47
2022-08-17T13:16:29.958Z,98543.00
2022-08-17T13:19:06.717Z,98533.03
2022-08-17T13:21:34.311Z,98548.16
2022-08-17T13:24:07.742Z,98543.19
2022-08-17T13:26:39.171Z,98542.22
2022-08-17T13:29:07.697Z,98534.66
2022-08-17T13:31:46.580Z,98530.97
2022-08-17T13:34:23.524Z,98527.53
2022-08-17T13:37:14.081Z,98525.53
2022-08-17T13:39:42.035Z,98529.56
2022-08-17T13:42:27.717Z,98521.03
2022-08-17T13:44:55.152Z,98539.22
2022-08-17T13:47:22.295Z,98529.03
2022-08-17T13:49:49.576Z,98524.84
2022-08-17T13:52:35.113Z,98529.00
2022-08-17T13:55:07.834Z,98529.00
2022-08-17T13:57:35.226Z,98520.88
2022-08-17T14:00:35.453Z,98524.78
2022-08-17T14:03:03.441Z,98528.66
2022-08-17T14:05:30.591Z,98528.34
2022-08-17T14:07:59.285Z,98521.22
2022-08-17T14:10:27.093Z,98524.94
2022-08-17T14:12:54.250Z,98515.09
2022-08-17T14:15:22.674Z,98516.84
2022-08-17T14:17:50.413Z,98514.94
2022-08-17T14:20:19.951Z,98513.75
2022-08-17T14:22:49.582Z,98522.72
2022-08-17T14:25:19.618Z,98511.94
2022-08-17T14:27:52.852Z,98515.09
2022-08-17T14:30:22.247Z,98509.38
2022-08-17T14:32:51.675Z,98519.56
2022-08-17T14:35:19.290Z,98519.06
2022-08-17T14:37:47.653Z,98518.50
2022-08-17T14:40:15.643Z,98521.09
2022-08-17T14:42:43.439Z,98525.19
2022-08-17T14:45:30.367Z,98521.50
2022-08-17T14:48:01.363Z,98522.59
2022-08-17T14:50:28.777Z,98515.63
2022-08-17T14:52:58.269Z,98515.56
2022-08-17T14:55:26.586Z,98511.88
2022-08-17T14:57:53.987Z,98512.59
2022-08-17T15:00:21.187Z,98512.44
2022-08-17T15:02:50.906Z,98501.03
2022-08-17T15:05:18.339Z,98491.59
2022-08-17T15:07:45.762Z,98504.12
2022-08-17T15:10:13.425Z,98503.69
2022-08-17T15:12:41.174Z,98504.47
2022-08-17T15:15:12.137Z,98502.19
2022-08-17T15:17:44.617Z,98501.22
2022-08-17T15:20:15.140Z,98501.59
2022-08-17T15:22:42.695Z,98506.13
2022-08-17T15:25:10.580Z,98506.31
2022-08-17T15:27:38.688Z,98509.69
2022-08-17T15:30:07.266Z,98516.44
2022-08-17T15:32:35.508Z,98505.97
2022-08-17T15:35:05.103Z,98501.22
2022-08-17T15:37:32.317Z,98505.56
2022-08-17T15:40:02.634Z,98508.88
2022-08-17T15:42:30.050Z,98511.75
2022-08-17T15:44:57.200Z,98513.47
2022-08-17T15:47:24.421Z,98501.09
2022-08-17T15:49:55.459Z,98510.25
2022-08-17T15:52:25.878Z,98507.87
2022-08-17T15:54:54.727Z,98517.59
2022-08-17T15:57:23.990Z,98520.88
2022-08-17T15:59:55.140Z,98511.59
2022-08-17T16:03:13.702Z,98514.00
2022-08-17T16:05:22.289Z,98517.28
2022-08-17T16:07:52.596Z,98515.41
2022-08-17T16:10:21.050Z,98516.69
2022-08-17T16:12:49.235Z,98511.78
2022-08-17T16:15:16.745Z,98513.13
2022-08-17T16:17:46.496Z,98511.22
2022-08-17T16:20:20.804Z,98511.59
2022-08-17T16:22:49.037Z,98512.97
2022-08-17T16:25:18.786Z,98513.63
2022-08-17T16:27:46.278Z,98514.37
2022-08-17T16:30:17.774Z,98508.19
2022-08-17T16:32:45.561Z,98504.38
2022-08-17T16:35:14.351Z,98509.38
2022-08-17T16:37:45.559Z,98503.84
2022-08-17T16:40:13.604Z,98504.00
2022-08-17T16:42:41.119Z,98500.47
2022-08-17T16:45:08.782Z,98501.41
2022-08-17T16:47:36.049Z,98502.78
2022-08-17T16:50:04.585Z,98498.38
2022-08-17T16:52:33.502Z,98507.94
2022-08-17T16:55:01.616Z,98500.06
2022-08-17T16:57:29.725Z,98504.09
2022-08-17T16:59:57.286Z,98512.22
2022-08-17T17:02:34.581Z,98515.69
2022-08-17T17:05:11.909Z,98510.06
2022-08-17T17:07:51.299Z,98510.59
2022-08-17T17:10:21.316Z,98511.19
2022-08-17T17:13:03.015Z,98513.75
2022-08-17T17:15:39.659Z,98515.09
2022-08-17T17:18:07.722Z,98514.53
2022-08-17T17:20:38.166Z,98519.97
2022-08-17T17:23:05.411Z,98524.38
2022-08-17T17:25:52.794Z,98521.19
2022-08-17T17:28:24.812Z,98525.59
2022-08-17T17:31:11.213Z,98531.03
2022-08-17T17:33:40.319Z,98529.66
2022-08-17T17:36:27.735Z,98527.63
2022-08-17T17:38:59.202Z,98526.47
2022-08-17T17:41:29.035Z,98531.06
2022-08-17T17:43:59.087Z,98541.53
2022-08-17T17:46:33.826Z,98538.84
2022-08-17T17:49:01.313Z,98547.78
2022-08-17T17:52:09.418Z,98549.31
2022-08-17T17:54:39.444Z,98558.28
2022-08-17T17:57:09.581Z,98553.34
2022-08-17T17:59:44.094Z,98551.47
2022-08-17T18:02:11.469Z,98556.38
2022-08-17T18:04:52.838Z,98555.72
2022-08-17T18:07:23.782Z,98554.38
2022-08-17T18:09:54.204Z,98559.06
2022-08-17T18:12:28.793Z,98560.44
2022-08-17T18:15:01.218Z,98561.63
2022-08-17T18:17:29.669Z,98571.09
2022-08-17T18:19:57.087Z,98574.75
2022-08-17T18:22:24.466Z,98582.31
2022-08-17T18:24:56.512Z,98582.66
2022-08-17T18:27:34.304Z,98573.56
2022-08-17T18:30:09.077Z,98586.19
2022-08-17T18:32:36.800Z,98588.41
2022-08-17T18:35:09.683Z,98583.72
2022-08-17T18:37:37.057Z,98591.22
2022-08-17T18:40:16.731Z,98596.19
2022-08-17T18:42:57.494Z,98592.59
2022-08-17T18:45:42.105Z,98590.47
2022-08-17T18:48:24.830Z,98597.53
2022-08-17T18:50:53.480Z,98589.69
2022-08-17T18:53:26.788Z,98595.53
2022-08-17T18:56:15.461Z,98593.50
2022-08-17T18:58:43.105Z,98600.81
2022-08-17T19:01:18.025Z,98600.81
2022-08-17T19:03:45.987Z,98596.63
2022-08-17T19:06:28.941Z,98605.72
2022-08-17T19:08:56.408Z,98604.34
2022-08-17T19:11:30.892Z,98601.88
2022-08-17T19:14:11.074Z,98603.88
2022-08-17T19:16:52.068Z,98605.63
2022-08-17T19:19:30.861Z,98613.19
2022-08-17T19:21:59.088Z,98613.75
2022-08-17T19:24:27.401Z,98602.81
2022-08-17T19:27:06.253Z,98602.81
2022-08-17T19:29:38.730Z,98602.62
2022-08-17T19:32:09.376Z,98612.34
2022-08-17T19:34:37.923Z,98610.25
2022-08-17T19:37:23.603Z,98608.66
2022-08-17T19:39:55.646Z,98612.66
2022-08-17T19:42:32.965Z,98603.88
2022-08-17T19:45:00.339Z,98602.91
2022-08-17T19:47:53.742Z,98605.72
2022-08-17T19:50:38.521Z,98601.84
2022-08-17T19:53:13.838Z,98599.63
2022-08-17T19:55:47.893Z,98606.19
2022-08-17T19:58:34.634Z,98608.00
2022-08-17T20:01:02.416Z,98606.19
2022-08-17T20:03:32.783Z,98603.28
2022-08-17T20:06:12.591Z,98603.00
2022-08-17T20:08:41.548Z,98595.72
2022-08-17T20:11:09.113Z,98592.00
2022-08-17T20:13:43.637Z,98603.34
2022-08-17T20:16:11.345Z,98595.28
2022-08-17T20:18:38.454Z,98591.81
2022-08-17T20:21:31.642Z,98596.38
2022-08-17T20:24:05.661Z,98593.25
2022-08-17T20:26:57.870Z,98598.72
2022-08-17T20:29:46.087Z,98597.13
2022-08-17T20:32:15.334Z,98593.13
2022-08-17T20:34:42.706Z,98594.12
2022-08-17T20:37:10.955Z,98591.34
2022-08-17T20:39:43.147Z,98591.22
2022-08-17T20:42:22.545Z,98589.13
2022-08-17T20:45:02.802Z,98579.81
2022-08-17T20:48:00.775Z,98591.87
2022-08-17T20:50:35.054Z,98590.91
2022-08-17T20:53:03.714Z,98586.25
2022-08-17T20:55:34.321Z,98584.84
2022-08-17T20:58:17.030Z,98580.63
2022-08-17T21:00:56.647Z,98578.22
2022-08-17T21:03:24.154Z,98578.53
2022-08-17T21:05:59.727Z,98587.47
2022-08-17T21:08:31.411Z,98587.00
2022-08-17T21:11:00.071Z,98584.31
2022-08-17T21:13:40.423Z,98584.22
2022-08-17T21:16:10.390Z,98580.66
2022-08-17T21:18:40.161Z,98580.69
2022-08-17T21:21:14.097Z,98584.66
2022-08-17T21:24:02.964Z,98584.09
2022-08-17T21:26:32.790Z,98591.03
2022-08-17T21:29:31.105Z,98595.56
2022-08-17T21:32:03.122Z,98601.94
2022-08-17T21:34:33.268Z,98598.66
2022-08-17T21:37:18.868Z,98596.97
2022-08-17T21:39:51.294Z,98602.34
2022-08-17T21:42:22.845Z,98594.69
2022-08-17T21:44:50.493Z,98595.12
2022-08-17T21:47:25.210Z,98602.22
2022-08-17T21:49:53.114Z,98593.00
2022-08-17T21:52:21.094Z,98596.28
2022-08-17T21:54:49.510Z,98599.66
2022-08-17T21:57:21.227Z,98598.37
2022-08-17T21:59:52.678Z,98608.97
2022-08-17T22:02:21.147Z,98608.28
2022-08-17T22:05:01.854Z,98621.34
2022-08-17T22:07:39.736Z,98624.19
2022-08-17T22:10:08.571Z,98627.25
2022-08-17T22:12:35.780Z,98630.66
2022-08-17T22:15:06.133Z,98630.66
2022-08-17T22:17:35.567Z,98631.25
2022-08-17T22:20:14.996Z,98639.63
2022-08-17T22:23:04.045Z,98636.87
2022-08-17T22:25:32.895Z,98632.56
2022-08-17T22:28:01.122Z,98640.62
2022-08-17T22:30:28.335Z,98630.03
2022-08-17T22:32:55.695Z,98637.97
2022-08-17T22:35:42.666Z,98645.63
2022-08-17T22:38:19.018Z,98639.38
2022-08-17T22:40:56.842Z,98647.84
2022-08-17T22:43:26.297Z,98643.87
2022-08-17T22:45:54.857Z,98637.56
2022-08-17T22:48:23.353Z,98641.81
2022-08-17T22:51:12.725Z,98640.97
2022-08-17T22:54:07.464Z,98645.22
2022-08-17T22:56:53.701Z,98647.19
2022-08-17T22:59:44.461Z,98655.62
2022-08-17T23:02:17.001Z,98651.50
2022-08-17T23:04:45.415Z,98660.13
2022-08-17T23:07:12.896Z,98664.81
2022-08-17T23:09:42.361Z,98661.41
2022-08-17T23:12:11.582Z,98667.91
2022-08-17T23:14:40.900Z,98671.03
2022-08-17T23:17:08.315Z,98673.63
2022-08-17T23:19:35.477Z,98670.28
2022-08-17T23:22:04.304Z,98673.41
2022-08-17T23:24:33.089Z,98666.34
2022-08-17T23:27:00.243Z,98676.03
2022-08-17T23:29:29.440Z,98678.06
2022-08-17T23:31:57.940Z,98683.13
2022-08-17T23:34:25.598Z,98678.22
2022-08-17T23:36:53.243Z,98663.97
2022-08-17T23:39:27.806Z,98671.62
2022-08-17T23:41:56.976Z,98673.66
2022-08-17T23:44:24.268Z,98673.78
2022-08-17T23:46:51.984Z,98663.66
2022-08-17T23:49:19.580Z,98662.94
2022-08-17T23:51:46.763Z,98665.09
2022-08-17T23:54:30.280Z,98658.69
2022-08-17T23:56:57.683Z,98653.72
2022-08-17T23:59:25.279Z,98654.53
